sensor_id;sensor_type;location;lat;lon;timestamp;temperature;humidity
20315;DHT22;10315;50.958;13.080;2023-08-07T00:02:33;13.30;99.90
20315;DHT22;10315;50.958;13.080;2023-08-07T00:12:37;13.30;99.90
20315;DHT22;10315;50.958;13.080;2023-08-07T00:22:38;13.30;99.90
20315;DHT22;10315;50.958;13.080;2023-08-07T00:32:41;13.30;99.90
20315;DHT22;10315;50.958;13.080;2023-08-07T00:42:43;13.30;99.90
20315;DHT22;10315;50.958;13.080;2023-08-07T00:52:46;13.20;99.90
20315;DHT22;10315;50.958;13.080;2023-08-07T01:02:49;13.20;99.90
20315;DHT22;10315;50.958;13.080;2023-08-07T01:13:00;13.30;99.90
20315;DHT22;10315;50.958;13.080;2023-08-07T01:23:06;13.20;99.90
20315;DHT22;10315;50.958;13.080;2023-08-07T01:33:17;13.30;99.90
20315;DHT22;10315;50.958;13.080;2023-08-07T01:43:25;13.20;99.90
20315;DHT22;10315;50.958;13.080;2023-08-07T01:53:26;13.30;99.90
20315;DHT22;10315;50.958;13.080;2023-08-07T02:03:29;13.20;99.90
20315;DHT22;10315;50.958;13.080;2023-08-07T02:13:31;13.30;99.90
20315;DHT22;10315;50.958;13.080;2023-08-07T02:23:36;13.20;99.90
20315;DHT22;10315;50.958;13.080;2023-08-07T02:33:38;13.20;99.90
20315;DHT22;10315;50.958;13.080;2023-08-07T02:43:42;13.20;99.90
20315;DHT22;10315;50.958;13.080;2023-08-07T02:53:44;13.10;99.90
20315;DHT22;10315;50.958;13.080;2023-08-07T03:03:47;13.10;99.90
20315;DHT22;10315;50.958;13.080;2023-08-07T03:13:49;13.10;99.90
20315;DHT22;10315;50.958;13.080;2023-08-07T03:23:52;13.00;99.90
20315;DHT22;10315;50.958;13.080;2023-08-07T03:33:53;13.00;99.90
20315;DHT22;10315;50.958;13.080;2023-08-07T03:43:56;13.00;99.90
20315;DHT22;10315;50.958;13.080;2023-08-07T03:53:58;13.00;99.90
20315;DHT22;10315;50.958;13.080;2023-08-07T04:04:01;13.00;99.90
20315;DHT22;10315;50.958;13.080;2023-08-07T04:14:03;13.10;99.90
20315;DHT22;10315;50.958;13.080;2023-08-07T04:24:06;13.10;99.90
20315;DHT22;10315;50.958;13.080;2023-08-07T04:34:11;13.10;99.90
20315;DHT22;10315;50.958;13.080;2023-08-07T04:44:14;13.10;99.90
20315;DHT22;10315;50.958;13.080;2023-08-07T04:54:16;13.10;99.90
20315;DHT22;10315;50.958;13.080;2023-08-07T05:04:19;13.10;99.90
20315;DHT22;10315;50.958;13.080;2023-08-07T05:14:20;13.00;99.90
20315;DHT22;10315;50.958;13.080;2023-08-07T05:24:23;13.00;99.90
20315;DHT22;10315;50.958;13.080;2023-08-07T05:34:25;12.90;99.90
20315;DHT22;10315;50.958;13.080;2023-08-07T05:44:29;13.00;99.90
20315;DHT22;10315;50.958;13.080;2023-08-07T05:54:30;13.00;99.90
20315;DHT22;10315;50.958;13.080;2023-08-07T06:04:33;13.10;99.90
20315;DHT22;10315;50.958;13.080;2023-08-07T06:14:36;13.30;99.90
20315;DHT22;10315;50.958;13.080;2023-08-07T06:24:39;13.40;99.90
20315;DHT22;10315;50.958;13.080;2023-08-07T06:34:41;13.30;99.90
20315;DHT22;10315;50.958;13.080;2023-08-07T06:44:44;13.40;99.90
20315;DHT22;10315;50.958;13.080;2023-08-07T06:54:47;13.50;99.90
20315;DHT22;10315;50.958;13.080;2023-08-07T07:04:50;13.40;99.90
20315;DHT22;10315;50.958;13.080;2023-08-07T07:14:52;13.40;99.90
20315;DHT22;10315;50.958;13.080;2023-08-07T07:24:55;13.80;99.90
20315;DHT22;10315;50.958;13.080;2023-08-07T07:34:56;14.10;99.90
20315;DHT22;10315;50.958;13.080;2023-08-07T07:44:59;14.80;99.90
20315;DHT22;10315;50.958;13.080;2023-08-07T07:55:01;14.90;99.90
20315;DHT22;10315;50.958;13.080;2023-08-07T08:05:05;14.40;99.90
20315;DHT22;10315;50.958;13.080;2023-08-07T08:15:07;14.60;99.90
20315;DHT22;10315;50.958;13.080;2023-08-07T08:25:11;15.10;99.90
20315;DHT22;10315;50.958;13.080;2023-08-07T08:35:13;15.10;99.90
20315;DHT22;10315;50.958;13.080;2023-08-07T08:45:16;15.50;99.90
20315;DHT22;10315;50.958;13.080;2023-08-07T08:55:19;15.00;99.90
20315;DHT22;10315;50.958;13.080;2023-08-07T09:05:22;15.60;99.90
20315;DHT22;10315;50.958;13.080;2023-08-07T09:15:25;16.40;99.90
20315;DHT22;10315;50.958;13.080;2023-08-07T09:25:29;16.80;99.90
20315;DHT22;10315;50.958;13.080;2023-08-07T09:35:31;16.30;99.90
20315;DHT22;10315;50.958;13.080;2023-08-07T09:45:35;17.30;99.90
20315;DHT22;10315;50.958;13.080;2023-08-07T09:55:37;16.80;99.90
20315;DHT22;10315;50.958;13.080;2023-08-07T10:05:40;18.20;99.90
20315;DHT22;10315;50.958;13.080;2023-08-07T10:15:43;17.00;99.90
20315;DHT22;10315;50.958;13.080;2023-08-07T10:25:47;16.60;99.90
20315;DHT22;10315;50.958;13.080;2023-08-07T10:35:52;15.20;99.90
20315;DHT22;10315;50.958;13.080;2023-08-07T10:46:02;15.50;99.90
20315;DHT22;10315;50.958;13.080;2023-08-07T10:56:06;16.80;99.90
20315;DHT22;10315;50.958;13.080;2023-08-07T11:06:10;17.00;99.90
20315;DHT22;10315;50.958;13.080;2023-08-07T11:16:12;17.40;99.90
20315;DHT22;10315;50.958;13.080;2023-08-07T11:26:16;15.50;99.90
20315;DHT22;10315;50.958;13.080;2023-08-07T11:36:18;16.30;99.90
20315;DHT22;10315;50.958;13.080;2023-08-07T11:46:21;16.40;99.90
20315;DHT22;10315;50.958;13.080;2023-08-07T11:56:22;15.30;99.90
20315;DHT22;10315;50.958;13.080;2023-08-07T12:06:26;16.30;99.90
20315;DHT22;10315;50.958;13.080;2023-08-07T12:16:32;16.40;99.90
20315;DHT22;10315;50.958;13.080;2023-08-07T12:26:35;15.70;99.90
20315;DHT22;10315;50.958;13.080;2023-08-07T12:36:37;16.00;99.90
20315;DHT22;10315;50.958;13.080;2023-08-07T12:46:40;16.90;99.90
20315;DHT22;10315;50.958;13.080;2023-08-07T12:56:42;16.50;99.90
20315;DHT22;10315;50.958;13.080;2023-08-07T13:06:45;15.80;99.90
20315;DHT22;10315;50.958;13.080;2023-08-07T13:16:46;15.90;99.90
20315;DHT22;10315;50.958;13.080;2023-08-07T13:26:51;16.90;99.90
20315;DHT22;10315;50.958;13.080;2023-08-07T13:36:52;17.90;99.90
20315;DHT22;10315;50.958;13.080;2023-08-07T13:46:55;17.10;99.90
20315;DHT22;10315;50.958;13.080;2023-08-07T13:56:57;15.80;99.90
20315;DHT22;10315;50.958;13.080;2023-08-07T14:07:01;15.00;99.90
20315;DHT22;10315;50.958;13.080;2023-08-07T14:17:04;15.60;99.90
20315;DHT22;10315;50.958;13.080;2023-08-07T14:27:08;15.60;99.90
20315;DHT22;10315;50.958;13.080;2023-08-07T14:37:09;14.90;99.90
20315;DHT22;10315;50.958;13.080;2023-08-07T14:47:12;14.90;99.90
20315;DHT22;10315;50.958;13.080;2023-08-07T14:57:14;14.80;99.90
20315;DHT22;10315;50.958;13.080;2023-08-07T15:07:17;15.40;99.90
20315;DHT22;10315;50.958;13.080;2023-08-07T15:17:19;15.30;99.90
20315;DHT22;10315;50.958;13.080;2023-08-07T15:27:22;15.60;99.90
20315;DHT22;10315;50.958;13.080;2023-08-07T15:37:23;15.30;99.90
20315;DHT22;10315;50.958;13.080;2023-08-07T15:47:26;14.90;99.90
20315;DHT22;10315;50.958;13.080;2023-08-07T15:57:28;14.80;99.90
20315;DHT22;10315;50.958;13.080;2023-08-07T16:07:32;14.10;99.90
20315;DHT22;10315;50.958;13.080;2023-08-07T16:17:34;13.90;99.90
20315;DHT22;10315;50.958;13.080;2023-08-07T16:27:37;13.90;99.90
20315;DHT22;10315;50.958;13.080;2023-08-07T16:37:39;13.70;99.90
20315;DHT22;10315;50.958;13.080;2023-08-07T16:47:42;13.60;99.90
20315;DHT22;10315;50.958;13.080;2023-08-07T16:57:43;13.70;99.90
20315;DHT22;10315;50.958;13.080;2023-08-07T17:07:46;13.80;99.90
20315;DHT22;10315;50.958;13.080;2023-08-07T17:17:48;13.90;99.90
20315;DHT22;10315;50.958;13.080;2023-08-07T17:27:52;13.70;99.90
20315;DHT22;10315;50.958;13.080;2023-08-07T17:37:54;14.00;99.90
20315;DHT22;10315;50.958;13.080;2023-08-07T17:47:58;13.60;99.90
20315;DHT22;10315;50.958;13.080;2023-08-07T17:58:00;13.70;99.90
20315;DHT22;10315;50.958;13.080;2023-08-07T18:08:05;13.50;99.90
20315;DHT22;10315;50.958;13.080;2023-08-07T18:18:07;13.70;99.90
20315;DHT22;10315;50.958;13.080;2023-08-07T18:28:12;13.30;99.90
20315;DHT22;10315;50.958;13.080;2023-08-07T18:38:15;12.90;99.90
20315;DHT22;10315;50.958;13.080;2023-08-07T18:48:18;12.70;99.90
20315;DHT22;10315;50.958;13.080;2023-08-07T18:58:20;12.90;99.90
20315;DHT22;10315;50.958;13.080;2023-08-07T19:08:23;13.00;99.90
20315;DHT22;10315;50.958;13.080;2023-08-07T19:18:25;13.00;99.90
20315;DHT22;10315;50.958;13.080;2023-08-07T19:28:28;12.80;99.90
20315;DHT22;10315;50.958;13.080;2023-08-07T19:38:29;12.70;99.90
20315;DHT22;10315;50.958;13.080;2023-08-07T19:48:32;12.80;99.90
20315;DHT22;10315;50.958;13.080;2023-08-07T19:58:34;12.80;99.90
20315;DHT22;10315;50.958;13.080;2023-08-07T20:08:38;12.70;99.90
20315;DHT22;10315;50.958;13.080;2023-08-07T20:18:39;12.60;99.90
20315;DHT22;10315;50.958;13.080;2023-08-07T20:28:42;12.50;99.90
20315;DHT22;10315;50.958;13.080;2023-08-07T20:38:44;12.50;99.90
20315;DHT22;10315;50.958;13.080;2023-08-07T20:48:47;12.50;99.90
20315;DHT22;10315;50.958;13.080;2023-08-07T20:58:53;12.60;99.90
20315;DHT22;10315;50.958;13.080;2023-08-07T21:08:56;12.60;99.90
20315;DHT22;10315;50.958;13.080;2023-08-07T21:18:58;12.50;99.90
20315;DHT22;10315;50.958;13.080;2023-08-07T21:29:01;12.60;99.90
20315;DHT22;10315;50.958;13.080;2023-08-07T21:39:03;12.60;99.90
20315;DHT22;10315;50.958;13.080;2023-08-07T21:49:07;12.50;99.90
20315;DHT22;10315;50.958;13.080;2023-08-07T21:59:08;12.20;99.90
20315;DHT22;10315;50.958;13.080;2023-08-07T22:09:17;11.90;99.90
20315;DHT22;10315;50.958;13.080;2023-08-07T22:19:19;11.90;99.90
20315;DHT22;10315;50.958;13.080;2023-08-07T22:29:22;11.80;99.90
20315;DHT22;10315;50.958;13.080;2023-08-07T22:39:24;11.80;99.90
20315;DHT22;10315;50.958;13.080;2023-08-07T22:49:27;11.70;99.90
20315;DHT22;10315;50.958;13.080;2023-08-07T22:59:28;11.50;99.90
20315;DHT22;10315;50.958;13.080;2023-08-07T23:09:31;11.30;99.90
20315;DHT22;10315;50.958;13.080;2023-08-07T23:19:33;11.50;99.90
20315;DHT22;10315;50.958;13.080;2023-08-07T23:29:36;11.40;99.90
20315;DHT22;10315;50.958;13.080;2023-08-07T23:39:38;11.30;99.90
20315;DHT22;10315;50.958;13.080;2023-08-07T23:49:41;11.50;99.90
20315;DHT22;10315;50.958;13.080;2023-08-07T23:59:43;11.40;99.90
